sensor_id;sensor_type;location;lat;lon;timestamp;temperature;humidity
33988;DHT22;37428;53.580;-1.666;2023-04-06T00:00:21;9.70;96.50
33988;DHT22;37428;53.580;-1.666;2023-04-06T00:03:23;9.70;96.20
33988;DHT22;37428;53.580;-1.666;2023-04-06T00:06:25;9.70;96.60
33988;DHT22;37428;53.580;-1.666;2023-04-06T00:09:27;9.70;96.80
33988;DHT22;37428;53.580;-1.666;2023-04-06T00:12:31;9.70;96.80
33988;DHT22;37428;53.580;-1.666;2023-04-06T00:15:33;9.70;96.50
33988;DHT22;37428;53.580;-1.666;2023-04-06T00:18:35;9.80;96.80
33988;DHT22;37428;53.580;-1.666;2023-04-06T00:21:37;9.80;96.70
33988;DHT22;37428;53.580;-1.666;2023-04-06T00:24:39;9.70;96.80
33988;DHT22;37428;53.580;-1.666;2023-04-06T00:27:43;9.70;97.00
33988;DHT22;37428;53.580;-1.666;2023-04-06T00:30:45;9.70;97.20
33988;DHT22;37428;53.580;-1.666;2023-04-06T00:33:48;9.60;97.60
33988;DHT22;37428;53.580;-1.666;2023-04-06T00:36:51;9.60;97.70
33988;DHT22;37428;53.580;-1.666;2023-04-06T00:39:53;9.60;98.20
33988;DHT22;37428;53.580;-1.666;2023-04-06T00:42:56;9.50;98.40
33988;DHT22;37428;53.580;-1.666;2023-04-06T00:45:58;9.50;98.60
33988;DHT22;37428;53.580;-1.666;2023-04-06T00:49:00;9.50;98.60
33988;DHT22;37428;53.580;-1.666;2023-04-06T00:52:09;9.50;98.90
33988;DHT22;37428;53.580;-1.666;2023-04-06T00:55:17;9.50;98.90
33988;DHT22;37428;53.580;-1.666;2023-04-06T00:58:22;9.50;98.90
33988;DHT22;37428;53.580;-1.666;2023-04-06T01:01:24;9.50;98.50
33988;DHT22;37428;53.580;-1.666;2023-04-06T01:04:28;9.50;99.10
33988;DHT22;37428;53.580;-1.666;2023-04-06T01:07:31;9.50;99.00
33988;DHT22;37428;53.580;-1.666;2023-04-06T01:10:33;9.50;98.60
33988;DHT22;37428;53.580;-1.666;2023-04-06T01:13:37;9.60;98.70
33988;DHT22;37428;53.580;-1.666;2023-04-06T01:16:40;9.50;98.50
33988;DHT22;37428;53.580;-1.666;2023-04-06T01:19:42;9.50;98.50
33988;DHT22;37428;53.580;-1.666;2023-04-06T01:22:47;9.50;98.50
33988;DHT22;37428;53.580;-1.666;2023-04-06T01:25:49;9.50;98.40
33988;DHT22;37428;53.580;-1.666;2023-04-06T01:28:51;9.50;98.70
33988;DHT22;37428;53.580;-1.666;2023-04-06T01:31:55;9.50;98.90
33988;DHT22;37428;53.580;-1.666;2023-04-06T01:34:58;9.50;98.90
33988;DHT22;37428;53.580;-1.666;2023-04-06T01:38:02;9.50;98.90
33988;DHT22;37428;53.580;-1.666;2023-04-06T01:41:04;9.50;98.80
33988;DHT22;37428;53.580;-1.666;2023-04-06T01:44:06;9.40;98.80
33988;DHT22;37428;53.580;-1.666;2023-04-06T01:47:08;9.40;98.80
33988;DHT22;37428;53.580;-1.666;2023-04-06T01:50:12;9.40;99.00
33988;DHT22;37428;53.580;-1.666;2023-04-06T01:53:16;9.40;99.30
33988;DHT22;37428;53.580;-1.666;2023-04-06T01:56:18;9.40;99.20
33988;DHT22;37428;53.580;-1.666;2023-04-06T01:59:20;9.50;99.20
33988;DHT22;37428;53.580;-1.666;2023-04-06T02:02:22;9.50;99.30
33988;DHT22;37428;53.580;-1.666;2023-04-06T02:05:25;9.50;99.00
33988;DHT22;37428;53.580;-1.666;2023-04-06T02:08:31;9.50;98.90
33988;DHT22;37428;53.580;-1.666;2023-04-06T02:11:33;9.50;98.70
33988;DHT22;37428;53.580;-1.666;2023-04-06T02:14:36;9.50;98.60
33988;DHT22;37428;53.580;-1.666;2023-04-06T02:17:38;9.60;98.80
33988;DHT22;37428;53.580;-1.666;2023-04-06T02:20:41;9.60;98.90
33988;DHT22;37428;53.580;-1.666;2023-04-06T02:23:44;9.60;98.70
33988;DHT22;37428;53.580;-1.666;2023-04-06T02:26:46;9.60;98.50
33988;DHT22;37428;53.580;-1.666;2023-04-06T02:29:48;9.60;98.60
33988;DHT22;37428;53.580;-1.666;2023-04-06T02:32:51;9.60;98.70
33988;DHT22;37428;53.580;-1.666;2023-04-06T02:35:53;9.60;98.70
33988;DHT22;37428;53.580;-1.666;2023-04-06T02:38:57;9.60;98.90
33988;DHT22;37428;53.580;-1.666;2023-04-06T02:41:59;9.60;98.80
33988;DHT22;37428;53.580;-1.666;2023-04-06T02:45:03;9.60;99.10
33988;DHT22;37428;53.580;-1.666;2023-04-06T02:48:07;9.50;99.50
33988;DHT22;37428;53.580;-1.666;2023-04-06T02:51:09;9.50;99.70
33988;DHT22;37428;53.580;-1.666;2023-04-06T02:54:12;9.50;99.70
33988;DHT22;37428;53.580;-1.666;2023-04-06T02:57:15;9.50;99.80
33988;DHT22;37428;53.580;-1.666;2023-04-06T03:00:18;9.40;99.90
33988;DHT22;37428;53.580;-1.666;2023-04-06T03:03:20;9.40;99.90
33988;DHT22;37428;53.580;-1.666;2023-04-06T03:06:22;9.40;99.90
33988;DHT22;37428;53.580;-1.666;2023-04-06T03:09:26;9.40;99.90
33988;DHT22;37428;53.580;-1.666;2023-04-06T03:12:29;9.40;99.90
33988;DHT22;37428;53.580;-1.666;2023-04-06T03:15:31;9.40;99.90
33988;DHT22;37428;53.580;-1.666;2023-04-06T03:18:33;9.40;99.90
33988;DHT22;37428;53.580;-1.666;2023-04-06T03:21:35;9.40;99.90
33988;DHT22;37428;53.580;-1.666;2023-04-06T03:24:39;9.40;99.90
33988;DHT22;37428;53.580;-1.666;2023-04-06T03:27:41;9.40;99.90
33988;DHT22;37428;53.580;-1.666;2023-04-06T03:30:43;9.50;99.90
33988;DHT22;37428;53.580;-1.666;2023-04-06T03:33:45;9.50;99.90
33988;DHT22;37428;53.580;-1.666;2023-04-06T03:36:47;9.40;99.90
33988;DHT22;37428;53.580;-1.666;2023-04-06T03:39:52;9.50;99.90
33988;DHT22;37428;53.580;-1.666;2023-04-06T03:42:54;9.50;99.90
33988;DHT22;37428;53.580;-1.666;2023-04-06T03:45:56;9.50;99.90
33988;DHT22;37428;53.580;-1.666;2023-04-06T03:48:58;9.50;99.90
33988;DHT22;37428;53.580;-1.666;2023-04-06T03:52:01;9.50;99.90
33988;DHT22;37428;53.580;-1.666;2023-04-06T03:55:06;9.50;99.90
33988;DHT22;37428;53.580;-1.666;2023-04-06T03:58:08;9.50;99.90
33988;DHT22;37428;53.580;-1.666;2023-04-06T04:01:10;9.50;99.90
33988;DHT22;37428;53.580;-1.666;2023-04-06T04:04:12;9.50;99.90
33988;DHT22;37428;53.580;-1.666;2023-04-06T04:07:15;9.50;99.90
33988;DHT22;37428;53.580;-1.666;2023-04-06T04:10:18;9.50;99.90
33988;DHT22;37428;53.580;-1.666;2023-04-06T04:13:20;9.50;99.90
33988;DHT22;37428;53.580;-1.666;2023-04-06T04:16:22;9.50;99.90
33988;DHT22;37428;53.580;-1.666;2023-04-06T04:19:25;9.50;99.90
33988;DHT22;37428;53.580;-1.666;2023-04-06T04:22:27;9.50;99.90
33988;DHT22;37428;53.580;-1.666;2023-04-06T04:25:31;9.50;99.90
33988;DHT22;37428;53.580;-1.666;2023-04-06T04:28:33;9.50;99.90
33988;DHT22;37428;53.580;-1.666;2023-04-06T04:31:35;9.50;99.90
33988;DHT22;37428;53.580;-1.666;2023-04-06T04:34:37;9.50;99.90
33988;DHT22;37428;53.580;-1.666;2023-04-06T04:37:41;9.40;99.90
33988;DHT22;37428;53.580;-1.666;2023-04-06T04:40:44;9.40;99.90
33988;DHT22;37428;53.580;-1.666;2023-04-06T04:43:46;9.40;99.90
33988;DHT22;37428;53.580;-1.666;2023-04-06T04:46:48;9.40;99.90
33988;DHT22;37428;53.580;-1.666;2023-04-06T04:49:50;9.40;99.90
33988;DHT22;37428;53.580;-1.666;2023-04-06T04:52:52;9.40;99.90
33988;DHT22;37428;53.580;-1.666;2023-04-06T04:55:56;9.40;99.90
33988;DHT22;37428;53.580;-1.666;2023-04-06T04:58:58;9.40;99.90
33988;DHT22;37428;53.580;-1.666;2023-04-06T05:02:00;9.40;99.90
33988;DHT22;37428;53.580;-1.666;2023-04-06T05:05:03;9.40;99.90
33988;DHT22;37428;53.580;-1.666;2023-04-06T05:08:05;9.30;99.90
33988;DHT22;37428;53.580;-1.666;2023-04-06T05:11:09;9.30;99.90
33988;DHT22;37428;53.580;-1.666;2023-04-06T05:14:11;9.30;99.90
33988;DHT22;37428;53.580;-1.666;2023-04-06T05:17:13;9.30;99.90
33988;DHT22;37428;53.580;-1.666;2023-04-06T05:20:16;9.30;99.90
33988;DHT22;37428;53.580;-1.666;2023-04-06T05:23:18;9.40;99.90
33988;DHT22;37428;53.580;-1.666;2023-04-06T05:26:21;9.40;99.90
33988;DHT22;37428;53.580;-1.666;2023-04-06T05:29:23;9.40;99.90
33988;DHT22;37428;53.580;-1.666;2023-04-06T05:32:27;9.40;99.90
33988;DHT22;37428;53.580;-1.666;2023-04-06T05:35:29;9.40;99.90
33988;DHT22;37428;53.580;-1.666;2023-04-06T05:38:31;9.30;99.90
33988;DHT22;37428;53.580;-1.666;2023-04-06T05:41:36;9.30;99.90
33988;DHT22;37428;53.580;-1.666;2023-04-06T05:44:38;9.30;99.90
33988;DHT22;37428;53.580;-1.666;2023-04-06T05:47:40;9.40;99.90
33988;DHT22;37428;53.580;-1.666;2023-04-06T05:50:43;9.40;99.90
33988;DHT22;37428;53.580;-1.666;2023-04-06T05:53:45;9.50;99.90
33988;DHT22;37428;53.580;-1.666;2023-04-06T05:56:48;9.40;99.90
33988;DHT22;37428;53.580;-1.666;2023-04-06T05:59:50;9.40;99.90
33988;DHT22;37428;53.580;-1.666;2023-04-06T06:02:52;9.40;99.90
33988;DHT22;37428;53.580;-1.666;2023-04-06T06:05:59;9.30;99.90
33988;DHT22;37428;53.580;-1.666;2023-04-06T06:09:02;9.30;99.90
33988;DHT22;37428;53.580;-1.666;2023-04-06T06:12:06;9.30;99.90
33988;DHT22;37428;53.580;-1.666;2023-04-06T06:15:08;9.20;99.90
33988;DHT22;37428;53.580;-1.666;2023-04-06T06:18:11;9.20;99.90
33988;DHT22;37428;53.580;-1.666;2023-04-06T06:21:13;9.20;99.90
33988;DHT22;37428;53.580;-1.666;2023-04-06T06:24:15;9.30;99.90
33988;DHT22;37428;53.580;-1.666;2023-04-06T06:27:19;9.30;99.90
33988;DHT22;37428;53.580;-1.666;2023-04-06T06:30:21;9.30;99.90
33988;DHT22;37428;53.580;-1.666;2023-04-06T06:33:23;9.30;99.80
33988;DHT22;37428;53.580;-1.666;2023-04-06T06:36:26;9.30;99.70
33988;DHT22;37428;53.580;-1.666;2023-04-06T06:39:29;9.30;99.40
33988;DHT22;37428;53.580;-1.666;2023-04-06T06:42:32;9.20;99.10
33988;DHT22;37428;53.580;-1.666;2023-04-06T06:45:34;9.20;98.60
33988;DHT22;37428;53.580;-1.666;2023-04-06T06:48:36;9.10;98.70
33988;DHT22;37428;53.580;-1.666;2023-04-06T06:51:39;9.10;98.70
33988;DHT22;37428;53.580;-1.666;2023-04-06T06:54:41;9.10;98.60
33988;DHT22;37428;53.580;-1.666;2023-04-06T06:57:48;9.10;98.80
33988;DHT22;37428;53.580;-1.666;2023-04-06T07:00:50;9.10;97.80
33988;DHT22;37428;53.580;-1.666;2023-04-06T07:03:57;9.10;98.00
33988;DHT22;37428;53.580;-1.666;2023-04-06T07:06:59;9.00;98.00
33988;DHT22;37428;53.580;-1.666;2023-04-06T07:10:02;8.90;97.40
33988;DHT22;37428;53.580;-1.666;2023-04-06T07:13:08;8.80;97.40
33988;DHT22;37428;53.580;-1.666;2023-04-06T07:16:15;8.70;97.30
33988;DHT22;37428;53.580;-1.666;2023-04-06T07:19:17;8.50;96.80
33988;DHT22;37428;53.580;-1.666;2023-04-06T07:22:19;8.40;97.20
33988;DHT22;37428;53.580;-1.666;2023-04-06T07:25:21;8.30;96.50
33988;DHT22;37428;53.580;-1.666;2023-04-06T07:28:25;8.20;97.50
33988;DHT22;37428;53.580;-1.666;2023-04-06T07:31:27;8.20;97.50
33988;DHT22;37428;53.580;-1.666;2023-04-06T07:34:30;8.30;96.50
33988;DHT22;37428;53.580;-1.666;2023-04-06T07:37:32;8.30;96.10
33988;DHT22;37428;53.580;-1.666;2023-04-06T07:40:35;8.40;95.90
33988;DHT22;37428;53.580;-1.666;2023-04-06T07:43:50;8.50;95.80
33988;DHT22;37428;53.580;-1.666;2023-04-06T07:46:52;8.50;95.10
33988;DHT22;37428;53.580;-1.666;2023-04-06T07:49:55;8.60;94.50
33988;DHT22;37428;53.580;-1.666;2023-04-06T07:52:58;8.60;94.20
33988;DHT22;37428;53.580;-1.666;2023-04-06T07:56:01;8.60;93.50
33988;DHT22;37428;53.580;-1.666;2023-04-06T07:59:04;8.60;93.20
33988;DHT22;37428;53.580;-1.666;2023-04-06T08:02:07;8.60;92.00
33988;DHT22;37428;53.580;-1.666;2023-04-06T08:05:09;8.60;92.70
33988;DHT22;37428;53.580;-1.666;2023-04-06T08:08:11;8.60;90.80
33988;DHT22;37428;53.580;-1.666;2023-04-06T08:11:15;8.90;91.40
33988;DHT22;37428;53.580;-1.666;2023-04-06T08:14:19;9.50;90.60
33988;DHT22;37428;53.580;-1.666;2023-04-06T08:17:23;9.50;87.60
33988;DHT22;37428;53.580;-1.666;2023-04-06T08:20:36;9.40;85.30
33988;DHT22;37428;53.580;-1.666;2023-04-06T08:23:39;9.10;83.30
33988;DHT22;37428;53.580;-1.666;2023-04-06T08:26:41;8.90;82.30
33988;DHT22;37428;53.580;-1.666;2023-04-06T08:29:45;8.80;83.50
33988;DHT22;37428;53.580;-1.666;2023-04-06T08:32:47;8.70;84.40
33988;DHT22;37428;53.580;-1.666;2023-04-06T08:35:49;8.70;82.10
33988;DHT22;37428;53.580;-1.666;2023-04-06T08:38:51;8.70;82.20
33988;DHT22;37428;53.580;-1.666;2023-04-06T08:41:54;9.10;84.50
33988;DHT22;37428;53.580;-1.666;2023-04-06T08:45:01;9.40;79.90
33988;DHT22;37428;53.580;-1.666;2023-04-06T08:48:05;9.90;78.80
33988;DHT22;37428;53.580;-1.666;2023-04-06T08:51:08;10.40;75.90
33988;DHT22;37428;53.580;-1.666;2023-04-06T08:54:10;10.50;76.10
33988;DHT22;37428;53.580;-1.666;2023-04-06T08:57:12;10.60;75.70
33988;DHT22;37428;53.580;-1.666;2023-04-06T09:00:17;10.70;73.70
33988;DHT22;37428;53.580;-1.666;2023-04-06T09:03:20;10.80;75.00
33988;DHT22;37428;53.580;-1.666;2023-04-06T09:06:23;10.90;73.80
33988;DHT22;37428;53.580;-1.666;2023-04-06T09:09:27;10.80;74.90
33988;DHT22;37428;53.580;-1.666;2023-04-06T09:12:30;11.10;72.40
33988;DHT22;37428;53.580;-1.666;2023-04-06T09:15:34;11.40;68.70
33988;DHT22;37428;53.580;-1.666;2023-04-06T09:18:39;11.40;68.30
33988;DHT22;37428;53.580;-1.666;2023-04-06T09:21:41;11.50;69.10
33988;DHT22;37428;53.580;-1.666;2023-04-06T09:24:47;11.90;71.40
33988;DHT22;37428;53.580;-1.666;2023-04-06T09:27:57;12.30;67.90
33988;DHT22;37428;53.580;-1.666;2023-04-06T09:31:01;12.30;66.10
33988;DHT22;37428;53.580;-1.666;2023-04-06T09:34:03;12.40;66.90
33988;DHT22;37428;53.580;-1.666;2023-04-06T09:37:15;12.60;66.90
33988;DHT22;37428;53.580;-1.666;2023-04-06T09:40:19;12.90;65.70
33988;DHT22;37428;53.580;-1.666;2023-04-06T09:43:25;13.00;64.20
33988;DHT22;37428;53.580;-1.666;2023-04-06T09:46:31;12.60;62.80
33988;DHT22;37428;53.580;-1.666;2023-04-06T09:49:34;12.50;63.50
33988;DHT22;37428;53.580;-1.666;2023-04-06T09:52:40;12.50;64.80
33988;DHT22;37428;53.580;-1.666;2023-04-06T09:55:43;12.50;62.00
33988;DHT22;37428;53.580;-1.666;2023-04-06T09:58:47;12.80;62.00
33988;DHT22;37428;53.580;-1.666;2023-04-06T10:01:54;12.60;61.50
33988;DHT22;37428;53.580;-1.666;2023-04-06T10:05:02;12.40;64.10
33988;DHT22;37428;53.580;-1.666;2023-04-06T10:08:06;12.30;62.40
33988;DHT22;37428;53.580;-1.666;2023-04-06T10:11:10;12.10;63.70
33988;DHT22;37428;53.580;-1.666;2023-04-06T10:14:15;12.30;65.70
33988;DHT22;37428;53.580;-1.666;2023-04-06T10:17:19;12.40;64.30
33988;DHT22;37428;53.580;-1.666;2023-04-06T10:20:25;12.50;63.60
33988;DHT22;37428;53.580;-1.666;2023-04-06T10:23:32;12.50;63.30
33988;DHT22;37428;53.580;-1.666;2023-04-06T10:26:35;12.40;64.70
33988;DHT22;37428;53.580;-1.666;2023-04-06T10:29:46;12.60;63.30
33988;DHT22;37428;53.580;-1.666;2023-04-06T10:32:50;12.80;63.00
33988;DHT22;37428;53.580;-1.666;2023-04-06T10:35:53;13.20;62.40
33988;DHT22;37428;53.580;-1.666;2023-04-06T10:38:57;13.20;60.20
33988;DHT22;37428;53.580;-1.666;2023-04-06T10:42:06;13.10;61.30
33988;DHT22;37428;53.580;-1.666;2023-04-06T10:45:19;13.20;62.30
33988;DHT22;37428;53.580;-1.666;2023-04-06T10:48:22;13.50;61.40
33988;DHT22;37428;53.580;-1.666;2023-04-06T10:51:25;13.60;58.70
33988;DHT22;37428;53.580;-1.666;2023-04-06T10:54:29;14.00;58.30
33988;DHT22;37428;53.580;-1.666;2023-04-06T10:57:33;13.90;57.20
33988;DHT22;37428;53.580;-1.666;2023-04-06T11:00:44;13.90;58.20
33988;DHT22;37428;53.580;-1.666;2023-04-06T11:03:49;14.10;56.90
33988;DHT22;37428;53.580;-1.666;2023-04-06T11:06:51;14.20;56.20
33988;DHT22;37428;53.580;-1.666;2023-04-06T11:09:56;14.30;57.70
33988;DHT22;37428;53.580;-1.666;2023-04-06T11:12:58;14.70;57.60
33988;DHT22;37428;53.580;-1.666;2023-04-06T11:16:01;15.00;57.50
33988;DHT22;37428;53.580;-1.666;2023-04-06T11:19:05;15.10;55.10
33988;DHT22;37428;53.580;-1.666;2023-04-06T11:22:07;15.10;53.20
33988;DHT22;37428;53.580;-1.666;2023-04-06T11:25:16;15.10;53.90
33988;DHT22;37428;53.580;-1.666;2023-04-06T11:28:19;15.20;51.80
33988;DHT22;37428;53.580;-1.666;2023-04-06T11:31:25;15.20;53.30
33988;DHT22;37428;53.580;-1.666;2023-04-06T11:34:32;15.20;52.30
33988;DHT22;37428;53.580;-1.666;2023-04-06T11:37:34;15.40;51.90
33988;DHT22;37428;53.580;-1.666;2023-04-06T11:40:36;15.50;50.60
33988;DHT22;37428;53.580;-1.666;2023-04-06T11:43:38;15.60;51.80
33988;DHT22;37428;53.580;-1.666;2023-04-06T11:46:53;15.50;50.70
33988;DHT22;37428;53.580;-1.666;2023-04-06T11:50:05;15.30;49.60
33988;DHT22;37428;53.580;-1.666;2023-04-06T11:53:07;15.40;50.80
33988;DHT22;37428;53.580;-1.666;2023-04-06T11:56:10;15.50;50.00
33988;DHT22;37428;53.580;-1.666;2023-04-06T11:59:13;15.80;51.10
33988;DHT22;37428;53.580;-1.666;2023-04-06T12:02:15;16.00;48.70
33988;DHT22;37428;53.580;-1.666;2023-04-06T12:05:19;15.50;49.70
33988;DHT22;37428;53.580;-1.666;2023-04-06T12:08:21;14.90;50.70
33988;DHT22;37428;53.580;-1.666;2023-04-06T12:11:26;14.40;52.00
33988;DHT22;37428;53.580;-1.666;2023-04-06T12:14:29;14.10;53.90
33988;DHT22;37428;53.580;-1.666;2023-04-06T12:17:32;14.40;54.40
33988;DHT22;37428;53.580;-1.666;2023-04-06T12:20:36;14.90;53.40
33988;DHT22;37428;53.580;-1.666;2023-04-06T12:23:38;14.80;51.70
33988;DHT22;37428;53.580;-1.666;2023-04-06T12:26:40;15.10;51.90
33988;DHT22;37428;53.580;-1.666;2023-04-06T12:29:42;15.20;51.60
33988;DHT22;37428;53.580;-1.666;2023-04-06T12:32:44;15.20;51.60
33988;DHT22;37428;53.580;-1.666;2023-04-06T12:35:48;15.30;54.50
33988;DHT22;37428;53.580;-1.666;2023-04-06T12:38:51;14.70;50.50
33988;DHT22;37428;53.580;-1.666;2023-04-06T12:41:53;14.50;52.90
33988;DHT22;37428;53.580;-1.666;2023-04-06T12:45:12;14.20;51.90
33988;DHT22;37428;53.580;-1.666;2023-04-06T12:48:14;14.10;53.40
33988;DHT22;37428;53.580;-1.666;2023-04-06T12:51:16;13.50;53.10
33988;DHT22;37428;53.580;-1.666;2023-04-06T12:54:19;14.10;55.20
33988;DHT22;37428;53.580;-1.666;2023-04-06T12:57:21;14.50;51.50
33988;DHT22;37428;53.580;-1.666;2023-04-06T13:00:25;13.70;52.30
33988;DHT22;37428;53.580;-1.666;2023-04-06T13:03:27;13.50;52.60
33988;DHT22;37428;53.580;-1.666;2023-04-06T13:06:29;13.30;52.50
33988;DHT22;37428;53.580;-1.666;2023-04-06T13:09:31;13.70;54.50
33988;DHT22;37428;53.580;-1.666;2023-04-06T13:12:33;13.90;53.70
33988;DHT22;37428;53.580;-1.666;2023-04-06T13:15:37;14.00;54.70
33988;DHT22;37428;53.580;-1.666;2023-04-06T13:18:39;13.60;50.00
33988;DHT22;37428;53.580;-1.666;2023-04-06T13:21:41;13.90;51.80
33988;DHT22;37428;53.580;-1.666;2023-04-06T13:24:43;14.30;51.10
33988;DHT22;37428;53.580;-1.666;2023-04-06T13:27:45;14.60;50.30
33988;DHT22;37428;53.580;-1.666;2023-04-06T13:30:50;15.10;49.90
33988;DHT22;37428;53.580;-1.666;2023-04-06T13:33:52;15.60;50.30
33988;DHT22;37428;53.580;-1.666;2023-04-06T13:36:54;16.10;49.60
33988;DHT22;37428;53.580;-1.666;2023-04-06T13:39:56;15.80;47.00
33988;DHT22;37428;53.580;-1.666;2023-04-06T13:42:58;15.80;47.70
33988;DHT22;37428;53.580;-1.666;2023-04-06T13:46:02;15.60;49.60
33988;DHT22;37428;53.580;-1.666;2023-04-06T13:49:04;15.60;47.60
33988;DHT22;37428;53.580;-1.666;2023-04-06T13:52:06;15.60;48.20
33988;DHT22;37428;53.580;-1.666;2023-04-06T13:55:10;15.30;47.20
33988;DHT22;37428;53.580;-1.666;2023-04-06T13:58:12;15.10;48.30
33988;DHT22;37428;53.580;-1.666;2023-04-06T14:01:16;15.00;49.80
33988;DHT22;37428;53.580;-1.666;2023-04-06T14:04:18;15.60;52.30
33988;DHT22;37428;53.580;-1.666;2023-04-06T14:07:21;15.80;49.40
33988;DHT22;37428;53.580;-1.666;2023-04-06T14:10:23;15.80;48.30
33988;DHT22;37428;53.580;-1.666;2023-04-06T14:13:28;15.30;47.40
33988;DHT22;37428;53.580;-1.666;2023-04-06T14:16:31;14.80;48.40
33988;DHT22;37428;53.580;-1.666;2023-04-06T14:19:33;14.50;48.40
33988;DHT22;37428;53.580;-1.666;2023-04-06T14:22:36;14.30;47.90
33988;DHT22;37428;53.580;-1.666;2023-04-06T14:25:38;14.20;48.60
33988;DHT22;37428;53.580;-1.666;2023-04-06T14:28:41;13.70;48.60
33988;DHT22;37428;53.580;-1.666;2023-04-06T14:31:47;13.60;49.70
33988;DHT22;37428;53.580;-1.666;2023-04-06T14:34:49;13.40;51.00
33988;DHT22;37428;53.580;-1.666;2023-04-06T14:37:51;13.40;51.20
33988;DHT22;37428;53.580;-1.666;2023-04-06T14:40:53;13.40;50.80
33988;DHT22;37428;53.580;-1.666;2023-04-06T14:43:56;13.30;51.30
33988;DHT22;37428;53.580;-1.666;2023-04-06T14:47:00;13.10;51.30
33988;DHT22;37428;53.580;-1.666;2023-04-06T14:50:02;13.10;50.50
33988;DHT22;37428;53.580;-1.666;2023-04-06T14:53:04;13.00;50.30
33988;DHT22;37428;53.580;-1.666;2023-04-06T14:56:06;13.20;49.60
33988;DHT22;37428;53.580;-1.666;2023-04-06T14:59:09;13.30;49.80
33988;DHT22;37428;53.580;-1.666;2023-04-06T15:02:12;13.50;50.50
33988;DHT22;37428;53.580;-1.666;2023-04-06T15:05:14;13.60;51.40
33988;DHT22;37428;53.580;-1.666;2023-04-06T15:08:16;13.40;50.70
33988;DHT22;37428;53.580;-1.666;2023-04-06T15:11:21;13.20;50.70
33988;DHT22;37428;53.580;-1.666;2023-04-06T15:14:23;13.20;52.90
33988;DHT22;37428;53.580;-1.666;2023-04-06T15:17:26;13.20;52.30
33988;DHT22;37428;53.580;-1.666;2023-04-06T15:20:29;13.10;52.50
33988;DHT22;37428;53.580;-1.666;2023-04-06T15:23:31;13.00;52.30
33988;DHT22;37428;53.580;-1.666;2023-04-06T15:26:35;12.70;52.00
33988;DHT22;37428;53.580;-1.666;2023-04-06T15:29:38;12.70;53.30
33988;DHT22;37428;53.580;-1.666;2023-04-06T15:32:52;12.60;53.30
33988;DHT22;37428;53.580;-1.666;2023-04-06T15:35:54;12.60;53.50
33988;DHT22;37428;53.580;-1.666;2023-04-06T15:38:57;12.50;54.10
33988;DHT22;37428;53.580;-1.666;2023-04-06T15:41:59;12.60;54.30
33988;DHT22;37428;53.580;-1.666;2023-04-06T15:45:01;12.90;54.10
33988;DHT22;37428;53.580;-1.666;2023-04-06T15:48:05;13.10;53.40
33988;DHT22;37428;53.580;-1.666;2023-04-06T15:51:07;13.00;53.60
33988;DHT22;37428;53.580;-1.666;2023-04-06T15:54:09;13.00;54.50
33988;DHT22;37428;53.580;-1.666;2023-04-06T15:57:11;12.60;54.30
33988;DHT22;37428;53.580;-1.666;2023-04-06T16:00:15;12.10;55.20
33988;DHT22;37428;53.580;-1.666;2023-04-06T16:03:19;12.00;56.00
33988;DHT22;37428;53.580;-1.666;2023-04-06T16:06:21;11.90;56.60
33988;DHT22;37428;53.580;-1.666;2023-04-06T16:09:23;11.70;57.00
33988;DHT22;37428;53.580;-1.666;2023-04-06T16:12:26;11.60;57.50
33988;DHT22;37428;53.580;-1.666;2023-04-06T16:15:28;11.50;58.90
33988;DHT22;37428;53.580;-1.666;2023-04-06T16:18:31;11.80;60.20
33988;DHT22;37428;53.580;-1.666;2023-04-06T16:21:33;12.00;58.20
33988;DHT22;37428;53.580;-1.666;2023-04-06T16:24:35;11.80;58.00
33988;DHT22;37428;53.580;-1.666;2023-04-06T16:27:38;11.90;58.60
33988;DHT22;37428;53.580;-1.666;2023-04-06T16:30:40;11.80;58.00
33988;DHT22;37428;53.580;-1.666;2023-04-06T16:33:43;11.80;59.60
33988;DHT22;37428;53.580;-1.666;2023-04-06T16:36:45;11.70;61.40
33988;DHT22;37428;53.580;-1.666;2023-04-06T16:39:47;11.20;66.80
33988;DHT22;37428;53.580;-1.666;2023-04-06T16:42:49;11.00;69.60
33988;DHT22;37428;53.580;-1.666;2023-04-06T16:45:52;10.80;70.40
33988;DHT22;37428;53.580;-1.666;2023-04-06T16:48:55;10.70;71.10
33988;DHT22;37428;53.580;-1.666;2023-04-06T16:51:57;10.70;71.30
33988;DHT22;37428;53.580;-1.666;2023-04-06T16:55:02;10.80;70.70
33988;DHT22;37428;53.580;-1.666;2023-04-06T16:58:05;10.80;71.30
33988;DHT22;37428;53.580;-1.666;2023-04-06T17:01:07;10.60;70.60
33988;DHT22;37428;53.580;-1.666;2023-04-06T17:04:19;10.60;72.60
33988;DHT22;37428;53.580;-1.666;2023-04-06T17:07:22;10.60;72.00
33988;DHT22;37428;53.580;-1.666;2023-04-06T17:10:26;10.60;71.10
33988;DHT22;37428;53.580;-1.666;2023-04-06T17:13:28;10.50;71.00
33988;DHT22;37428;53.580;-1.666;2023-04-06T17:16:30;10.50;70.50
33988;DHT22;37428;53.580;-1.666;2023-04-06T17:19:34;10.40;68.40
33988;DHT22;37428;53.580;-1.666;2023-04-06T17:22:36;10.30;69.00
33988;DHT22;37428;53.580;-1.666;2023-04-06T17:25:38;10.20;68.90
33988;DHT22;37428;53.580;-1.666;2023-04-06T17:28:40;10.20;68.90
33988;DHT22;37428;53.580;-1.666;2023-04-06T17:31:43;10.20;67.90
33988;DHT22;37428;53.580;-1.666;2023-04-06T17:34:47;10.20;66.60
33988;DHT22;37428;53.580;-1.666;2023-04-06T17:37:49;10.20;66.80
33988;DHT22;37428;53.580;-1.666;2023-04-06T17:40:51;10.10;67.00
33988;DHT22;37428;53.580;-1.666;2023-04-06T17:43:54;10.00;66.80
33988;DHT22;37428;53.580;-1.666;2023-04-06T17:46:56;9.90;67.30
33988;DHT22;37428;53.580;-1.666;2023-04-06T17:50:00;9.90;68.70
33988;DHT22;37428;53.580;-1.666;2023-04-06T17:53:03;9.70;68.30
33988;DHT22;37428;53.580;-1.666;2023-04-06T17:56:05;9.70;68.80
33988;DHT22;37428;53.580;-1.666;2023-04-06T17:59:07;9.70;68.60
33988;DHT22;37428;53.580;-1.666;2023-04-06T18:02:10;9.70;69.20
33988;DHT22;37428;53.580;-1.666;2023-04-06T18:05:14;9.70;69.10
33988;DHT22;37428;53.580;-1.666;2023-04-06T18:08:16;9.90;70.40
33988;DHT22;37428;53.580;-1.666;2023-04-06T18:11:19;10.00;69.20
33988;DHT22;37428;53.580;-1.666;2023-04-06T18:14:21;9.90;67.70
33988;DHT22;37428;53.580;-1.666;2023-04-06T18:17:23;9.90;68.00
33988;DHT22;37428;53.580;-1.666;2023-04-06T18:20:27;9.80;68.00
33988;DHT22;37428;53.580;-1.666;2023-04-06T18:23:29;9.60;68.20
33988;DHT22;37428;53.580;-1.666;2023-04-06T18:26:31;9.60;69.00
33988;DHT22;37428;53.580;-1.666;2023-04-06T18:29:33;9.50;68.40
33988;DHT22;37428;53.580;-1.666;2023-04-06T18:32:36;9.40;69.00
33988;DHT22;37428;53.580;-1.666;2023-04-06T18:35:39;9.30;69.40
33988;DHT22;37428;53.580;-1.666;2023-04-06T18:38:43;9.10;69.50
33988;DHT22;37428;53.580;-1.666;2023-04-06T18:41:49;9.10;69.80
33988;DHT22;37428;53.580;-1.666;2023-04-06T18:44:51;9.10;70.20
33988;DHT22;37428;53.580;-1.666;2023-04-06T18:47:54;9.00;70.30
33988;DHT22;37428;53.580;-1.666;2023-04-06T18:50:58;9.00;69.80
33988;DHT22;37428;53.580;-1.666;2023-04-06T18:54:01;8.90;70.10
33988;DHT22;37428;53.580;-1.666;2023-04-06T18:57:03;8.90;70.20
33988;DHT22;37428;53.580;-1.666;2023-04-06T19:00:07;8.90;70.00
33988;DHT22;37428;53.580;-1.666;2023-04-06T19:03:09;8.70;70.10
33988;DHT22;37428;53.580;-1.666;2023-04-06T19:06:12;8.60;70.30
33988;DHT22;37428;53.580;-1.666;2023-04-06T19:09:14;8.60;71.30